Sunday, November 19, 2017, 2:12 PM GMT
Back to Local

CYSC, Sherbrooke, Que.

Location: , , Canada Lat: 45.4
Local Time: 2:12 PM GMT (14:12 GMT) Lon: -71.883
Time Zone: GMT Elev: 557 ft

Show me the last for .
Show Coded

Time T Td Feel RH Dir Speed Gust Alt SLP Vis Weather Sky Remarks
2017-11-19 13:38 39 39 36 100 30° 5 - 29.02 29.04 6 -RA BR OVC017 None
2017-11-19 13:00 39 39 35 100 60° 6 - 29.04 29.06 3 RA BR OVC019 None
2017-11-19 12:52 39 37 36 93 90° 5 - 29.06 29.08 5 -RA BR OVC019 None
2017-11-19 12:15 37 37 - 100 40° 2 - 29.05 29.08 7 -RA BKN023 OVC031 None
2017-11-19 12:13 37 37 - 100 40° 2 - 29.05 29.08 6 -RA BR BKN025 OVC031 None
2017-11-19 12:00 36 36 33 100 30° 3 - 29.06 29.09 3 -RA BR BKN025 OVC030 None
2017-11-19 11:46 36 36 33 100 20° 3 - 29.07 29.10 3 -RA BR SCT022 OVC030 None
2017-11-19 11:39 36 36 - 100 20° 2 - 29.07 29.10 2 -RA BR BKN025 OVC030 None
2017-11-19 11:37 36 36 - 100 20° 2 - 29.07 29.10 1 -RA BR BKN025 OVC030 None
2017-11-19 11:35 36 36 - 100 Variable 2 - 29.07 29.10 2 RA BR BKN025 OVC030 None
2017-11-19 11:34 36 36 - 100 Variable 2 - 29.08 29.10 2 RA BR BKN023 OVC030 None
2017-11-19 11:24 36 36 - 100 Variable 2 - 29.08 29.11 2 RA BR OVC025 None
2017-11-19 11:17 36 36 - 100 Variable 2 - 29.09 29.12 5 -RA BR OVC025 None
2017-11-19 11:05 36 36 33 100 50° 3 - 29.09 29.12 9 -RA OVC025 None
2017-11-19 11:00 36 36 32 100 70° 5 - 29.09 29.12 9 -RA OVC023 None
2017-11-19 10:45 36 34 33 93 70° 3 - 29.10 29.13 6 -RA BR OVC023 None
2017-11-19 10:31 36 34 33 93 70° 3 - 29.10 29.13 5 -RA BR OVC023 Pressure falling rapidly
2017-11-19 10:18 36 36 32 100 90° 5 - 29.13 29.15 8 -RA OVC023 None
2017-11-19 10:03 36 36 33 100 90° 3 - 29.13 29.16 9 -RA OVC025 None
2017-11-19 10:01 36 36 33 100 90° 3 - 29.14 29.16 9 -RA BKN023 OVC028 None
2017-11-19 10:00 36 36 33 100 100° 3 - 29.14 29.17 9 -RA OVC026 None
2017-11-19 09:42 36 36 30 100 50° 7 - 29.11 29.14 9 -RA OVC028 Pressure falling rapidly
2017-11-19 09:23 34 34 28 100 20° 7 - 29.14 29.17 9 OVC028 Pressure falling rapidly
2017-11-19 09:00 34 34 31 100 50° 3 - 29.15 29.18 8 -RA BKN030 OVC037 Pressure falling rapidly
2017-11-19 08:37 36 36 30 100 100° 7 - 29.17 29.20 9 -RA SCT021 BKN028 OVC039 Pressure falling rapidly
2017-11-19 08:23 34 34 30 100 80° 5 - 29.20 29.23 6 -RA BR OVC021 None
2017-11-19 08:00 34 34 31 100 320° 3 - 29.23 29.26 5 -RA BR BKN023 OVC030 None
2017-11-19 07:59 34 34 31 100 310° 3 - 29.23 29.26 6 -RA BR BKN023 OVC030 None
2017-11-19 07:10 34 32 - 93 - Calm - 29.24 29.27 9 -RA OVC030 None
2017-11-19 07:07 34 32 - 93 50° 2 - 29.25 29.28 9 OVC030 None
2017-11-19 07:00 34 34 31 100 70° 3 - 29.25 29.28 9 -RA OVC032 None
2017-11-19 06:31 34 32 - 93 Variable 2 - 29.26 29.29 9 -RA SCT029 BKN037 OVC044 None
2017-11-19 06:11 34 32 29 93 70° 6 - 29.27 29.30 9 BKN029 OVC037 None
2017-11-19 06:00 34 32 31 93 80° 3 - 29.28 29.31 9 -RA FEW029 BKN035 OVC045 None
2017-11-19 05:39 32 32 25 100 60° 8 - 29.30 29.33 9 -RA BKN026 OVC035 Pressure falling rapidly
2017-11-19 05:28 32 32 26 100 50° 7 - 29.32 29.35 9 OVC026 Pressure falling rapidly
2017-11-19 05:24 32 32 26 100 60° 7 - 29.32 29.36 9 OVC024 Pressure falling rapidly
2017-11-19 05:09 32 32 26 100 70° 6 - 29.35 29.38 9 -RA OVC024 None
2017-11-19 05:00 32 32 26 100 70° 7 - 29.35 29.39 9 -RA OVC026 Pressure falling rapidly
2017-11-19 04:14 32 30 27 92 90° 5 - 29.41 29.44 9 -RA OVC026 None
2017-11-19 04:00 32 30 26 92 70° 6 - 29.41 29.44 9 -RA OVC024 None
2017-11-19 03:00 34 27 29 74 80° 6 - 29.45 29.49 9 -RA OVC024 None
2017-11-19 02:59 34 27 29 74 70° 6 - 29.46 29.49 9 -RA OVC024 None
2017-11-19 02:37 34 25 31 69 70° 3 - 29.47 29.51 9 OVC026 None
2017-11-19 02:25 34 27 31 74 90° 3 - 29.48 29.52 9 -RA OVC028 None
2017-11-19 02:11 34 25 23 69 130° 8 17 29.49 29.52 9 OVC030 None
2017-11-19 02:00 34 25 25 69 140° 13 - 29.49 29.53 9 -RA OVC032 None
2017-11-19 01:51 36 23 28 59 130° 12 - 29.50 29.54 9 -RA OVC034 None
2017-11-19 01:39 36 21 28 55 120° 12 - 29.50 29.54 9 BKN034 OVC041 None
2017-11-19 01:25 36 21 28 55 130° 12 - 29.51 29.55 9 -RA OVC040 None
2017-11-19 01:00 36 21 30 55 120° 7 - 29.52 29.56 9 OVC042 None
2017-11-19 00:00 36 19 30 51 110° 7 - 29.56 29.59 9 SCT042 BKN049 OVC070 None
2017-11-18 23:00 36 21 29 55 110° 8 - 29.56 29.60 9 OVC070 None
2017-11-18 22:00 32 27 - 80 60° 2 - 29.57 29.62 9 OVC080 None
2017-11-18 21:00 32 25 29 74 100° 3 - 29.57 29.62 9 OVC075 None
2017-11-18 20:00 34 25 30 69 60° 5 - 29.61 29.65 9 OVC095 Pressure falling rapidly
2017-11-18 19:00 32 25 26 74 70° 7 - 29.64 29.68 9 BKN110 BKN250 Pressure falling rapidly
2017-11-18 18:00 30 23 27 74 360° 3 - 29.69 29.73 9 SCT120 None
2017-11-18 17:00 30 21 - 68 30° 2 - 29.71 29.75 9 CLR None
2017-11-18 16:00 28 19 25 68 100° 3 - 29.77 29.82 9 SCT130 SCT250 None
2017-11-18 15:00 25 19 18 79 70° 6 - 29.81 29.85 9 FEW150 None

Support USWX by starting your Amazon purchase here.